sensor_id;sensor_type;location;lat;lon;timestamp;pressure;altitude;pressure_sealevel;temperature;humidity
34103;BME280;20381;54.498;18.206;2023-03-13T00:01:28;98703.45;;;0.37;58.81
34103;BME280;20381;54.498;18.206;2023-03-13T00:03:52;98699.55;;;0.39;58.83
34103;BME280;20381;54.498;18.206;2023-03-13T00:06:22;98708.45;;;0.42;58.87
34103;BME280;20381;54.498;18.206;2023-03-13T00:08:50;98690.48;;;0.42;58.98
34103;BME280;20381;54.498;18.206;2023-03-13T00:11:16;98690.78;;;0.48;59.06
34103;BME280;20381;54.498;18.206;2023-03-13T00:13:43;98688.12;;;0.52;59.12
34103;BME280;20381;54.498;18.206;2023-03-13T00:16:12;98692.79;;;0.54;59.27
34103;BME280;20381;54.498;18.206;2023-03-13T00:18:47;98692.69;;;0.59;59.37
34103;BME280;20381;54.498;18.206;2023-03-13T00:21:16;98686.20;;;0.62;59.34
34103;BME280;20381;54.498;18.206;2023-03-13T00:23:44;98688.71;;;0.63;59.49
34103;BME280;20381;54.498;18.206;2023-03-13T00:26:12;98700.27;;;0.63;59.57
34103;BME280;20381;54.498;18.206;2023-03-13T00:28:41;98699.34;;;0.68;59.72
34103;BME280;20381;54.498;18.206;2023-03-13T00:31:17;98694.52;;;0.72;59.70
34103;BME280;20381;54.498;18.206;2023-03-13T00:33:47;98696.62;;;0.74;59.72
34103;BME280;20381;54.498;18.206;2023-03-13T00:36:20;98698.30;;;0.75;59.76
34103;BME280;20381;54.498;18.206;2023-03-13T00:38:48;98690.59;;;0.75;59.78
34103;BME280;20381;54.498;18.206;2023-03-13T00:41:21;98677.73;;;0.75;59.88
34103;BME280;20381;54.498;18.206;2023-03-13T00:43:49;98668.75;;;0.75;59.93
34103;BME280;20381;54.498;18.206;2023-03-13T00:46:19;98664.03;;;0.76;60.00
34103;BME280;20381;54.498;18.206;2023-03-13T00:48:48;98662.30;;;0.76;60.04
34103;BME280;20381;54.498;18.206;2023-03-13T00:51:16;98644.33;;;0.75;60.01
34103;BME280;20381;54.498;18.206;2023-03-13T00:53:44;98636.26;;;0.72;60.06
34103;BME280;20381;54.498;18.206;2023-03-13T00:56:13;98631.56;;;0.72;60.08
34103;BME280;20381;54.498;18.206;2023-03-13T00:58:43;98623.94;;;0.69;60.14
34103;BME280;20381;54.498;18.206;2023-03-13T01:03:46;98613.19;;;0.71;60.32
34103;BME280;20381;54.498;18.206;2023-03-13T01:06:16;98609.50;;;0.64;60.33
34103;BME280;20381;54.498;18.206;2023-03-13T01:08:46;98600.92;;;0.64;60.52
34103;BME280;20381;54.498;18.206;2023-03-13T01:11:21;98591.52;;;0.64;60.58
34103;BME280;20381;54.498;18.206;2023-03-13T01:13:53;98584.75;;;0.60;60.67
34103;BME280;20381;54.498;18.206;2023-03-13T01:16:21;98589.50;;;0.59;60.82
34103;BME280;20381;54.498;18.206;2023-03-13T01:18:52;98585.14;;;0.61;60.98
34103;BME280;20381;54.498;18.206;2023-03-13T01:21:22;98585.95;;;0.63;61.04
34103;BME280;20381;54.498;18.206;2023-03-13T01:23:50;98576.96;;;0.63;61.17
34103;BME280;20381;54.498;18.206;2023-03-13T01:26:18;98573.58;;;0.61;61.14
34103;BME280;20381;54.498;18.206;2023-03-13T01:28:45;98567.74;;;0.56;61.17
34103;BME280;20381;54.498;18.206;2023-03-13T01:31:17;98554.17;;;0.51;61.30
34103;BME280;20381;54.498;18.206;2023-03-13T01:33:47;98549.19;;;0.45;61.47
34103;BME280;20381;54.498;18.206;2023-03-13T01:36:16;98549.23;;;0.42;61.63
34103;BME280;20381;54.498;18.206;2023-03-13T01:38:49;98551.89;;;0.39;61.84
34103;BME280;20381;54.498;18.206;2023-03-13T01:41:18;98544.23;;;0.37;61.85
34103;BME280;20381;54.498;18.206;2023-03-13T01:43:46;98553.75;;;0.34;62.16
34103;BME280;20381;54.498;18.206;2023-03-13T01:51:23;98541.09;;;0.26;62.42
34103;BME280;20381;54.498;18.206;2023-03-13T01:54:09;98543.22;;;0.27;62.45
34103;BME280;20381;54.498;18.206;2023-03-13T02:02:02;98526.29;;;0.36;63.06
34103;BME280;20381;54.498;18.206;2023-03-13T02:04:35;98530.87;;;0.41;63.03
34103;BME280;20381;54.498;18.206;2023-03-13T02:07:12;98529.84;;;0.48;63.16
34103;BME280;20381;54.498;18.206;2023-03-13T02:09:42;98543.81;;;0.54;63.33
34103;BME280;20381;54.498;18.206;2023-03-13T02:12:12;98547.05;;;0.61;63.39
34103;BME280;20381;54.498;18.206;2023-03-13T02:14:42;98545.19;;;0.68;63.46
34103;BME280;20381;54.498;18.206;2023-03-13T02:17:10;98533.94;;;0.72;63.53
34103;BME280;20381;54.498;18.206;2023-03-13T02:19:44;98540.75;;;0.73;63.70
34103;BME280;20381;54.498;18.206;2023-03-13T02:22:30;98534.69;;;0.75;63.80
34103;BME280;20381;54.498;18.206;2023-03-13T02:27:59;98532.82;;;0.82;63.91
34103;BME280;20381;54.498;18.206;2023-03-13T02:30:29;98521.25;;;0.82;64.02
34103;BME280;20381;54.498;18.206;2023-03-13T02:32:59;98522.03;;;0.84;64.10
34103;BME280;20381;54.498;18.206;2023-03-13T02:35:27;98521.64;;;0.83;64.17
34103;BME280;20381;54.498;18.206;2023-03-13T02:37:58;98522.91;;;0.84;64.21
34103;BME280;20381;54.498;18.206;2023-03-13T02:40:28;98519.88;;;0.85;64.39
34103;BME280;20381;54.498;18.206;2023-03-13T02:43:00;98516.42;;;0.86;64.53
34103;BME280;20381;54.498;18.206;2023-03-13T02:45:29;98505.33;;;0.84;64.55
34103;BME280;20381;54.498;18.206;2023-03-13T02:47:56;98503.66;;;0.83;64.59
34103;BME280;20381;54.498;18.206;2023-03-13T02:50:23;98495.14;;;0.81;64.78
34103;BME280;20381;54.498;18.206;2023-03-13T02:52:56;98494.75;;;0.80;64.85
34103;BME280;20381;54.498;18.206;2023-03-13T02:55:28;98490.06;;;0.79;64.97
34103;BME280;20381;54.498;18.206;2023-03-13T02:58:06;98478.05;;;0.80;65.09
34103;BME280;20381;54.498;18.206;2023-03-13T03:00:33;98477.16;;;0.81;65.02
34103;BME280;20381;54.498;18.206;2023-03-13T03:03:03;98461.83;;;0.78;65.22
34103;BME280;20381;54.498;18.206;2023-03-13T03:05:30;98460.98;;;0.77;65.44
34103;BME280;20381;54.498;18.206;2023-03-13T03:07:56;98467.05;;;0.75;65.43
34103;BME280;20381;54.498;18.206;2023-03-13T03:10:23;98469.53;;;0.78;65.57
34103;BME280;20381;54.498;18.206;2023-03-13T03:12:50;98455.82;;;0.79;65.59
34103;BME280;20381;54.498;18.206;2023-03-13T03:15:16;98451.55;;;0.78;65.99
34103;BME280;20381;54.498;18.206;2023-03-13T03:17:46;98441.17;;;0.81;65.93
34103;BME280;20381;54.498;18.206;2023-03-13T03:20:13;98444.64;;;0.80;65.96
34103;BME280;20381;54.498;18.206;2023-03-13T03:22:40;98433.53;;;0.79;66.24
34103;BME280;20381;54.498;18.206;2023-03-13T03:25:07;98442.55;;;0.78;66.33
34103;BME280;20381;54.498;18.206;2023-03-13T03:27:34;98425.77;;;0.81;66.48
34103;BME280;20381;54.498;18.206;2023-03-13T03:30:02;98435.95;;;0.84;66.64
34103;BME280;20381;54.498;18.206;2023-03-13T03:32:30;98429.23;;;0.80;66.87
34103;BME280;20381;54.498;18.206;2023-03-13T03:34:57;98427.85;;;0.83;66.83
34103;BME280;20381;54.498;18.206;2023-03-13T03:37:23;98420.11;;;0.84;66.97
34103;BME280;20381;54.498;18.206;2023-03-13T03:39:50;98439.33;;;0.86;67.14
34103;BME280;20381;54.498;18.206;2023-03-13T03:42:17;98425.19;;;0.86;67.26
34103;BME280;20381;54.498;18.206;2023-03-13T03:44:43;98417.91;;;0.87;67.22
34103;BME280;20381;54.498;18.206;2023-03-13T03:47:10;98409.39;;;0.85;67.52
34103;BME280;20381;54.498;18.206;2023-03-13T03:49:37;98400.03;;;0.82;67.62
34103;BME280;20381;54.498;18.206;2023-03-13T03:52:04;98380.63;;;0.72;67.66
34103;BME280;20381;54.498;18.206;2023-03-13T03:54:31;98389.38;;;0.81;67.80
34103;BME280;20381;54.498;18.206;2023-03-13T03:56:58;98391.49;;;0.82;67.99
34103;BME280;20381;54.498;18.206;2023-03-13T03:59:24;98396.62;;;0.82;68.08
34103;BME280;20381;54.498;18.206;2023-03-13T04:01:51;98394.80;;;0.85;68.17
34103;BME280;20381;54.498;18.206;2023-03-13T04:04:18;98397.82;;;0.85;68.28
34103;BME280;20381;54.498;18.206;2023-03-13T04:06:45;98396.12;;;0.84;68.37
34103;BME280;20381;54.498;18.206;2023-03-13T04:09:12;98393.87;;;0.88;68.66
34103;BME280;20381;54.498;18.206;2023-03-13T04:11:38;98391.22;;;0.91;68.71
34103;BME280;20381;54.498;18.206;2023-03-13T04:14:05;98386.88;;;0.93;68.84
34103;BME280;20381;54.498;18.206;2023-03-13T04:16:31;98386.72;;;0.98;68.97
34103;BME280;20381;54.498;18.206;2023-03-13T04:18:58;98373.36;;;1.01;69.07
34103;BME280;20381;54.498;18.206;2023-03-13T04:21:25;98373.27;;;1.04;69.12
34103;BME280;20381;54.498;18.206;2023-03-13T04:23:51;98361.80;;;1.01;69.04
34103;BME280;20381;54.498;18.206;2023-03-13T04:26:18;98359.98;;;1.03;69.17
34103;BME280;20381;54.498;18.206;2023-03-13T04:28:44;98359.22;;;1.01;69.33
34103;BME280;20381;54.498;18.206;2023-03-13T04:31:11;98354.08;;;1.01;69.39
34103;BME280;20381;54.498;18.206;2023-03-13T04:33:38;98356.66;;;1.01;69.58
34103;BME280;20381;54.498;18.206;2023-03-13T04:36:06;98350.22;;;1.01;69.75
34103;BME280;20381;54.498;18.206;2023-03-13T04:38:35;98336.86;;;1.03;69.80
34103;BME280;20381;54.498;18.206;2023-03-13T04:41:01;98343.00;;;0.99;70.09
34103;BME280;20381;54.498;18.206;2023-03-13T04:43:28;98346.47;;;0.98;70.11
34103;BME280;20381;54.498;18.206;2023-03-13T04:45:55;98340.04;;;0.98;70.09
34103;BME280;20381;54.498;18.206;2023-03-13T04:48:22;98332.72;;;0.99;70.41
34103;BME280;20381;54.498;18.206;2023-03-13T04:50:49;98326.58;;;1.03;70.51
34103;BME280;20381;54.498;18.206;2023-03-13T04:53:16;98324.81;;;1.05;70.44
34103;BME280;20381;54.498;18.206;2023-03-13T04:55:43;98319.77;;;1.02;70.66
34103;BME280;20381;54.498;18.206;2023-03-13T04:58:10;98323.91;;;1.06;70.86
34103;BME280;20381;54.498;18.206;2023-03-13T05:00:39;98318.28;;;1.08;70.94
34103;BME280;20381;54.498;18.206;2023-03-13T05:03:06;98314.42;;;1.08;70.96
34103;BME280;20381;54.498;18.206;2023-03-13T05:05:34;98310.98;;;1.09;71.10
34103;BME280;20381;54.498;18.206;2023-03-13T05:08:01;98302.86;;;1.08;71.33
34103;BME280;20381;54.498;18.206;2023-03-13T05:10:28;98301.58;;;1.08;71.50
34103;BME280;20381;54.498;18.206;2023-03-13T05:12:54;98294.28;;;1.09;71.57
34103;BME280;20381;54.498;18.206;2023-03-13T05:15:21;98287.85;;;1.09;71.66
34103;BME280;20381;54.498;18.206;2023-03-13T05:17:47;98294.59;;;1.12;71.89
34103;BME280;20381;54.498;18.206;2023-03-13T05:20:14;98283.31;;;1.18;72.02
34103;BME280;20381;54.498;18.206;2023-03-13T05:22:41;98280.22;;;1.20;72.04
34103;BME280;20381;54.498;18.206;2023-03-13T05:25:08;98278.83;;;1.23;72.12
34103;BME280;20381;54.498;18.206;2023-03-13T05:27:35;98283.97;;;1.23;72.30
34103;BME280;20381;54.498;18.206;2023-03-13T05:30:06;98269.34;;;1.25;72.41
34103;BME280;20381;54.498;18.206;2023-03-13T05:32:34;98270.08;;;1.28;72.51
34103;BME280;20381;54.498;18.206;2023-03-13T05:34:58;98268.27;;;1.32;72.54
34103;BME280;20381;54.498;18.206;2023-03-13T05:37:25;98268.27;;;1.32;72.82
34103;BME280;20381;54.498;18.206;2023-03-13T05:39:51;98267.26;;;1.36;72.86
34103;BME280;20381;54.498;18.206;2023-03-13T05:42:18;98259.50;;;1.38;73.08
34103;BME280;20381;54.498;18.206;2023-03-13T05:44:45;98254.02;;;1.35;73.27
34103;BME280;20381;54.498;18.206;2023-03-13T05:47:11;98257.77;;;1.38;73.33
34103;BME280;20381;54.498;18.206;2023-03-13T05:49:38;98259.05;;;1.38;73.37
34103;BME280;20381;54.498;18.206;2023-03-13T05:52:05;98261.14;;;1.40;73.62
34103;BME280;20381;54.498;18.206;2023-03-13T05:54:33;98248.55;;;1.44;73.64
34103;BME280;20381;54.498;18.206;2023-03-13T05:57:00;98251.02;;;1.47;73.76
34103;BME280;20381;54.498;18.206;2023-03-13T05:59:26;98249.59;;;1.52;73.88
34103;BME280;20381;54.498;18.206;2023-03-13T06:01:53;98251.22;;;1.54;74.01
34103;BME280;20381;54.498;18.206;2023-03-13T06:04:20;98248.54;;;1.58;74.10
34103;BME280;20381;54.498;18.206;2023-03-13T06:06:46;98245.86;;;1.61;74.21
34103;BME280;20381;54.498;18.206;2023-03-13T06:09:13;98238.94;;;1.63;74.24
34103;BME280;20381;54.498;18.206;2023-03-13T06:11:40;98231.98;;;1.65;74.46
34103;BME280;20381;54.498;18.206;2023-03-13T06:14:10;98236.14;;;1.69;74.57
34103;BME280;20381;54.498;18.206;2023-03-13T06:16:37;98224.38;;;1.73;74.75
34103;BME280;20381;54.498;18.206;2023-03-13T06:19:09;98214.31;;;1.79;74.85
34103;BME280;20381;54.498;18.206;2023-03-13T06:21:39;98222.27;;;1.85;75.11
34103;BME280;20381;54.498;18.206;2023-03-13T06:24:06;98216.84;;;1.92;75.09
34103;BME280;20381;54.498;18.206;2023-03-13T06:26:32;98214.99;;;1.96;75.16
34103;BME280;20381;54.498;18.206;2023-03-13T06:29:05;98208.40;;;2.00;75.16
34103;BME280;20381;54.498;18.206;2023-03-13T06:31:29;98205.70;;;2.04;75.27
34103;BME280;20381;54.498;18.206;2023-03-13T06:33:55;98208.17;;;2.07;75.43
34103;BME280;20381;54.498;18.206;2023-03-13T06:36:23;98196.88;;;2.11;75.57
34103;BME280;20381;54.498;18.206;2023-03-13T06:38:53;98200.13;;;2.16;75.59
34103;BME280;20381;54.498;18.206;2023-03-13T06:41:20;98197.43;;;2.19;75.82
34103;BME280;20381;54.498;18.206;2023-03-13T06:43:48;98200.27;;;2.23;75.82
34103;BME280;20381;54.498;18.206;2023-03-13T06:46:18;98188.56;;;2.26;76.02
34103;BME280;20381;54.498;18.206;2023-03-13T06:48:47;98183.16;;;2.32;76.24
34103;BME280;20381;54.498;18.206;2023-03-13T06:51:16;98173.41;;;2.40;76.17
34103;BME280;20381;54.498;18.206;2023-03-13T06:53:44;98177.94;;;2.45;76.39
34103;BME280;20381;54.498;18.206;2023-03-13T06:56:11;98176.52;;;2.49;76.40
34103;BME280;20381;54.498;18.206;2023-03-13T06:58:39;98174.61;;;2.54;76.57
34103;BME280;20381;54.498;18.206;2023-03-13T07:01:11;98163.05;;;2.64;76.78
34103;BME280;20381;54.498;18.206;2023-03-13T07:03:39;98166.91;;;2.74;76.92
34103;BME280;20381;54.498;18.206;2023-03-13T07:06:08;98171.84;;;2.80;76.95
34103;BME280;20381;54.498;18.206;2023-03-13T07:08:36;98167.09;;;2.91;77.08
34103;BME280;20381;54.498;18.206;2023-03-13T07:11:07;98166.75;;;2.99;77.02
34103;BME280;20381;54.498;18.206;2023-03-13T07:13:34;98156.96;;;3.07;77.31
34103;BME280;20381;54.498;18.206;2023-03-13T07:16:06;98154.72;;;3.20;77.37
34103;BME280;20381;54.498;18.206;2023-03-13T07:18:34;98146.95;;;3.30;77.43
34103;BME280;20381;54.498;18.206;2023-03-13T07:21:02;98149.16;;;3.40;77.56
34103;BME280;20381;54.498;18.206;2023-03-13T07:23:30;98143.86;;;3.53;77.63
34103;BME280;20381;54.498;18.206;2023-03-13T07:26:02;98145.25;;;3.60;77.62
34103;BME280;20381;54.498;18.206;2023-03-13T07:28:32;98137.22;;;3.66;77.83
34103;BME280;20381;54.498;18.206;2023-03-13T07:31:13;98134.36;;;3.72;77.86
34103;BME280;20381;54.498;18.206;2023-03-13T07:33:42;98130.61;;;3.79;78.02
34103;BME280;20381;54.498;18.206;2023-03-13T07:36:10;98122.58;;;3.86;78.16
34103;BME280;20381;54.498;18.206;2023-03-13T07:38:38;98114.18;;;3.91;78.14
34103;BME280;20381;54.498;18.206;2023-03-13T07:41:05;98110.16;;;3.94;78.27
34103;BME280;20381;54.498;18.206;2023-03-13T07:43:32;98108.21;;;3.99;78.21
34103;BME280;20381;54.498;18.206;2023-03-13T07:46:03;98105.85;;;4.03;78.29
34103;BME280;20381;54.498;18.206;2023-03-13T07:48:34;98107.00;;;4.06;78.34
34103;BME280;20381;54.498;18.206;2023-03-13T07:51:04;98107.62;;;4.11;78.43
34103;BME280;20381;54.498;18.206;2023-03-13T07:53:34;98087.07;;;4.18;78.52
34103;BME280;20381;54.498;18.206;2023-03-13T07:56:06;98093.01;;;4.20;78.47
34103;BME280;20381;54.498;18.206;2023-03-13T07:58:36;98086.55;;;4.20;78.55
34103;BME280;20381;54.498;18.206;2023-03-13T08:01:18;98086.41;;;4.23;78.62
34103;BME280;20381;54.498;18.206;2023-03-13T08:03:48;98081.09;;;4.26;78.87
34103;BME280;20381;54.498;18.206;2023-03-13T08:06:21;98085.03;;;4.34;78.94
34103;BME280;20381;54.498;18.206;2023-03-13T08:08:50;98077.28;;;4.34;78.77
34103;BME280;20381;54.498;18.206;2023-03-13T08:11:19;98077.52;;;4.29;78.88
34103;BME280;20381;54.498;18.206;2023-03-13T08:13:48;98068.02;;;4.30;79.01
34103;BME280;20381;54.498;18.206;2023-03-13T08:16:20;98074.11;;;4.29;79.15
34103;BME280;20381;54.498;18.206;2023-03-13T08:18:53;98070.97;;;4.31;79.23
34103;BME280;20381;54.498;18.206;2023-03-13T08:21:24;98067.09;;;4.31;79.16
34103;BME280;20381;54.498;18.206;2023-03-13T08:23:59;98069.05;;;4.25;79.25
34103;BME280;20381;54.498;18.206;2023-03-13T08:26:30;98061.31;;;4.25;79.41
34103;BME280;20381;54.498;18.206;2023-03-13T08:29:06;98048.12;;;4.32;79.56
34103;BME280;20381;54.498;18.206;2023-03-13T08:31:36;98052.06;;;4.39;79.70
34103;BME280;20381;54.498;18.206;2023-03-13T08:34:04;98053.45;;;4.46;79.69
34103;BME280;20381;54.498;18.206;2023-03-13T08:36:37;98035.05;;;4.52;79.65
34103;BME280;20381;54.498;18.206;2023-03-13T08:39:16;98032.92;;;4.60;79.84
34103;BME280;20381;54.498;18.206;2023-03-13T08:41:46;98027.06;;;4.65;79.76
34103;BME280;20381;54.498;18.206;2023-03-13T08:44:16;98031.68;;;4.67;79.72
34103;BME280;20381;54.498;18.206;2023-03-13T08:46:47;98035.70;;;4.73;79.87
34103;BME280;20381;54.498;18.206;2023-03-13T08:49:14;98033.06;;;4.75;79.91
34103;BME280;20381;54.498;18.206;2023-03-13T08:51:42;98027.89;;;4.75;80.10
34103;BME280;20381;54.498;18.206;2023-03-13T08:54:09;98021.36;;;4.76;80.44
34103;BME280;20381;54.498;18.206;2023-03-13T08:56:38;98015.56;;;4.80;80.33
34103;BME280;20381;54.498;18.206;2023-03-13T08:59:06;98013.03;;;4.87;80.35
34103;BME280;20381;54.498;18.206;2023-03-13T09:01:34;98007.17;;;4.92;80.41
34103;BME280;20381;54.498;18.206;2023-03-13T09:04:02;98010.52;;;4.94;80.20
34103;BME280;20381;54.498;18.206;2023-03-13T09:06:29;98002.39;;;4.93;80.27
34103;BME280;20381;54.498;18.206;2023-03-13T09:08:58;98002.77;;;4.94;80.32
34103;BME280;20381;54.498;18.206;2023-03-13T09:11:25;97987.41;;;4.91;80.67
34103;BME280;20381;54.498;18.206;2023-03-13T09:13:54;97993.55;;;4.97;80.67
34103;BME280;20381;54.498;18.206;2023-03-13T09:16:25;97984.29;;;4.93;80.54
34103;BME280;20381;54.498;18.206;2023-03-13T09:18:54;97983.06;;;4.91;80.65
34103;BME280;20381;54.498;18.206;2023-03-13T09:21:26;97975.37;;;4.90;80.59
34103;BME280;20381;54.498;18.206;2023-03-13T09:23:51;97972.21;;;4.85;80.64
34103;BME280;20381;54.498;18.206;2023-03-13T09:26:20;97970.52;;;4.84;80.74
34103;BME280;20381;54.498;18.206;2023-03-13T09:28:47;97967.04;;;4.85;80.77
34103;BME280;20381;54.498;18.206;2023-03-13T09:31:21;97954.94;;;4.85;81.06
34103;BME280;20381;54.498;18.206;2023-03-13T09:33:50;97951.95;;;4.93;81.18
34103;BME280;20381;54.498;18.206;2023-03-13T09:36:19;97945.20;;;5.06;81.15
34103;BME280;20381;54.498;18.206;2023-03-13T09:38:50;97947.31;;;5.15;81.43
34103;BME280;20381;54.498;18.206;2023-03-13T09:41:38;97938.88;;;5.28;81.25
34103;BME280;20381;54.498;18.206;2023-03-13T09:44:34;97937.64;;;5.35;81.35
34103;BME280;20381;54.498;18.206;2023-03-13T09:47:02;97930.14;;;5.37;81.29
34103;BME280;20381;54.498;18.206;2023-03-13T09:49:38;97919.02;;;5.44;81.50
34103;BME280;20381;54.498;18.206;2023-03-13T09:52:27;97915.77;;;5.41;81.42
34103;BME280;20381;54.498;18.206;2023-03-13T09:54:58;97912.55;;;5.44;81.59
34103;BME280;20381;54.498;18.206;2023-03-13T10:02:55;97908.68;;;5.51;81.88
34103;BME280;20381;54.498;18.206;2023-03-13T10:05:28;97903.89;;;5.52;81.87
34103;BME280;20381;54.498;18.206;2023-03-13T10:08:09;97896.85;;;5.54;82.04
34103;BME280;20381;54.498;18.206;2023-03-13T10:10:54;97884.71;;;5.64;82.25
34103;BME280;20381;54.498;18.206;2023-03-13T10:14:40;97884.72;;;5.71;82.09
34103;BME280;20381;54.498;18.206;2023-03-13T10:16:46;97873.78;;;5.66;81.93
34103;BME280;20381;54.498;18.206;2023-03-13T10:19:26;97871.01;;;5.61;82.05
34103;BME280;20381;54.498;18.206;2023-03-13T10:21:50;97863.70;;;5.61;82.26
34103;BME280;20381;54.498;18.206;2023-03-13T10:24:30;97858.42;;;5.63;82.50
34103;BME280;20381;54.498;18.206;2023-03-13T10:26:59;97856.41;;;5.68;82.54
34103;BME280;20381;54.498;18.206;2023-03-13T10:29:28;97856.06;;;5.74;82.58
34103;BME280;20381;54.498;18.206;2023-03-13T10:32:03;97843.11;;;5.74;82.53
34103;BME280;20381;54.498;18.206;2023-03-13T10:37:28;97839.41;;;5.71;82.78
34103;BME280;20381;54.498;18.206;2023-03-13T10:40:22;97831.42;;;5.59;82.94
34103;BME280;20381;54.498;18.206;2023-03-13T10:42:52;97827.71;;;5.56;83.21
34103;BME280;20381;54.498;18.206;2023-03-13T10:45:21;97808.22;;;5.58;83.33
34103;BME280;20381;54.498;18.206;2023-03-13T10:47:55;97813.29;;;5.52;83.38
34103;BME280;20381;54.498;18.206;2023-03-13T10:50:25;97804.20;;;5.45;83.49
34103;BME280;20381;54.498;18.206;2023-03-13T10:52:55;97789.60;;;5.51;83.81
34103;BME280;20381;54.498;18.206;2023-03-13T10:55:24;97785.53;;;5.54;83.65
34103;BME280;20381;54.498;18.206;2023-03-13T10:58:00;97772.70;;;5.53;83.83
34103;BME280;20381;54.498;18.206;2023-03-13T11:03:21;97759.58;;;5.56;84.10
34103;BME280;20381;54.498;18.206;2023-03-13T11:06:00;97755.41;;;5.53;84.23
34103;BME280;20381;54.498;18.206;2023-03-13T11:08:35;97756.34;;;5.52;84.35
34103;BME280;20381;54.498;18.206;2023-03-13T11:11:04;97752.82;;;5.53;84.78
34103;BME280;20381;54.498;18.206;2023-03-13T11:13:38;97745.80;;;5.55;85.11
34103;BME280;20381;54.498;18.206;2023-03-13T11:25:01;97715.39;;;5.52;85.89
34103;BME280;20381;54.498;18.206;2023-03-13T11:27:48;97709.17;;;5.47;86.27
34103;BME280;20381;54.498;18.206;2023-03-13T11:33:43;97697.50;;;5.40;87.10
34103;BME280;20381;54.498;18.206;2023-03-13T11:42:49;97678.85;;;5.35;88.02
34103;BME280;20381;54.498;18.206;2023-03-13T11:50:56;97660.34;;;5.34;89.10
34103;BME280;20381;54.498;18.206;2023-03-13T11:56:42;97641.95;;;5.31;89.47
34103;BME280;20381;54.498;18.206;2023-03-13T11:59:27;97634.66;;;5.31;89.75
34103;BME280;20381;54.498;18.206;2023-03-13T12:02:03;97624.95;;;5.27;90.02
34103;BME280;20381;54.498;18.206;2023-03-13T12:04:33;97620.97;;;5.22;90.65
34103;BME280;20381;54.498;18.206;2023-03-13T12:07:22;97613.00;;;5.18;90.86
34103;BME280;20381;54.498;18.206;2023-03-13T12:10:04;97603.13;;;5.17;91.20
34103;BME280;20381;54.498;18.206;2023-03-13T12:13:06;97584.94;;;5.19;91.32
34103;BME280;20381;54.498;18.206;2023-03-13T12:15:51;97587.41;;;5.20;91.43
34103;BME280;20381;54.498;18.206;2023-03-13T12:18:37;97577.89;;;5.21;91.84
34103;BME280;20381;54.498;18.206;2023-03-13T12:21:29;97574.41;;;5.22;91.80
34103;BME280;20381;54.498;18.206;2023-03-13T12:27:32;97566.53;;;5.23;92.06
34103;BME280;20381;54.498;18.206;2023-03-13T12:30:21;97562.22;;;5.24;92.25
34103;BME280;20381;54.498;18.206;2023-03-13T12:33:05;97551.68;;;5.27;92.47
34103;BME280;20381;54.498;18.206;2023-03-13T12:35:34;97546.67;;;5.31;92.60
34103;BME280;20381;54.498;18.206;2023-03-13T12:38:23;97539.47;;;5.36;93.05
34103;BME280;20381;54.498;18.206;2023-03-13T12:43:43;97529.84;;;5.45;93.41
34103;BME280;20381;54.498;18.206;2023-03-13T12:46:45;97538.16;;;5.50;93.67
34103;BME280;20381;54.498;18.206;2023-03-13T12:52:17;97508.08;;;5.62;93.96
34103;BME280;20381;54.498;18.206;2023-03-13T12:55:41;97525.73;;;5.70;94.06
34103;BME280;20381;54.498;18.206;2023-03-13T13:00:48;97519.97;;;5.79;94.38
34103;BME280;20381;54.498;18.206;2023-03-13T13:06:08;97493.50;;;5.95;94.67
34103;BME280;20381;54.498;18.206;2023-03-13T13:08:40;97486.20;;;5.95;94.75
34103;BME280;20381;54.498;18.206;2023-03-13T13:19:47;97482.39;;;6.00;95.40
34103;BME280;20381;54.498;18.206;2023-03-13T13:27:53;97460.32;;;6.08;95.81
34103;BME280;20381;54.498;18.206;2023-03-13T13:30:28;97447.34;;;6.15;95.98
34103;BME280;20381;54.498;18.206;2023-03-13T13:38:52;97437.98;;;6.32;96.41
34103;BME280;20381;54.498;18.206;2023-03-13T13:41:22;97439.25;;;6.39;96.38
34103;BME280;20381;54.498;18.206;2023-03-13T13:44:14;97434.80;;;6.41;96.48
34103;BME280;20381;54.498;18.206;2023-03-13T13:46:49;97431.74;;;6.42;96.49
34103;BME280;20381;54.498;18.206;2023-03-13T13:49:24;97428.26;;;6.48;96.75
34103;BME280;20381;54.498;18.206;2023-03-13T13:57:20;97434.11;;;6.58;96.95
34103;BME280;20381;54.498;18.206;2023-03-13T14:00:17;97424.13;;;6.59;97.08
34103;BME280;20381;54.498;18.206;2023-03-13T14:02:55;97413.02;;;6.57;97.06
34103;BME280;20381;54.498;18.206;2023-03-13T14:05:25;97411.98;;;6.59;97.27
34103;BME280;20381;54.498;18.206;2023-03-13T14:10:54;97416.48;;;6.63;97.54
34103;BME280;20381;54.498;18.206;2023-03-13T14:13:35;97394.87;;;6.69;97.62
34103;BME280;20381;54.498;18.206;2023-03-13T14:16:23;97405.86;;;6.73;97.69
34103;BME280;20381;54.498;18.206;2023-03-13T14:18:50;97404.78;;;6.70;97.87
34103;BME280;20381;54.498;18.206;2023-03-13T14:21:20;97402.75;;;6.68;97.99
34103;BME280;20381;54.498;18.206;2023-03-13T14:23:52;97402.95;;;6.65;98.08
34103;BME280;20381;54.498;18.206;2023-03-13T14:26:23;97397.77;;;6.65;97.99
34103;BME280;20381;54.498;18.206;2023-03-13T14:28:55;97406.50;;;6.64;98.09
34103;BME280;20381;54.498;18.206;2023-03-13T14:31:31;97380.96;;;6.58;98.30
34103;BME280;20381;54.498;18.206;2023-03-13T14:34:01;97380.96;;;6.58;98.30
34103;BME280;20381;54.498;18.206;2023-03-13T14:36:45;97394.54;;;6.74;98.49
34103;BME280;20381;54.498;18.206;2023-03-13T14:42:05;97388.70;;;6.83;98.50
34103;BME280;20381;54.498;18.206;2023-03-13T14:44:40;97379.80;;;6.87;98.67
34103;BME280;20381;54.498;18.206;2023-03-13T14:47:24;97376.77;;;6.93;98.82
34103;BME280;20381;54.498;18.206;2023-03-13T14:50:03;97371.30;;;7.04;99.07
34103;BME280;20381;54.498;18.206;2023-03-13T14:52:30;97367.48;;;7.15;99.11
34103;BME280;20381;54.498;18.206;2023-03-13T14:55:02;97365.18;;;7.23;99.18
34103;BME280;20381;54.498;18.206;2023-03-13T14:57:53;97357.90;;;7.28;99.23
34103;BME280;20381;54.498;18.206;2023-03-13T15:00:31;97356.72;;;7.32;99.27
34103;BME280;20381;54.498;18.206;2023-03-13T15:08:42;97348.27;;;7.42;99.56